createdAt,value
2019-05-18T00:00:47.135Z,25.10
2019-05-18T00:03:15.676Z,24.70
2019-05-18T00:05:44.117Z,24.00
2019-05-18T00:08:12.593Z,25.93
2019-05-18T00:10:41.020Z,25.27
2019-05-18T00:13:09.398Z,24.10
2019-05-18T00:15:38.273Z,25.63
2019-05-18T00:18:06.726Z,25.30
2019-05-18T00:20:35.207Z,27.97
2019-05-18T00:23:03.714Z,25.97
2019-05-18T00:25:32.124Z,26.77
2019-05-18T00:28:00.664Z,26.80
2019-05-18T00:30:29.483Z,28.00
2019-05-18T00:32:57.970Z,25.10
2019-05-18T00:35:26.483Z,27.13
2019-05-18T00:37:55.029Z,26.17
2019-05-18T00:40:23.569Z,25.00
2019-05-18T00:42:51.994Z,25.33
2019-05-18T00:45:20.560Z,24.50
2019-05-18T00:47:49.066Z,25.43
2019-05-18T00:50:17.946Z,24.77
2019-05-18T00:52:46.749Z,26.07
2019-05-18T00:55:15.527Z,26.93
2019-05-18T00:57:43.978Z,25.13
2019-05-18T01:00:13.521Z,25.93
2019-05-18T01:02:42.097Z,27.07
2019-05-18T01:05:10.591Z,26.10
2019-05-18T01:07:39.027Z,25.60
2019-05-18T01:10:08.252Z,26.40
2019-05-18T01:12:36.725Z,25.57
2019-05-18T01:15:27.405Z,27.00
2019-05-18T01:17:57.732Z,27.40
2019-05-18T01:20:26.006Z,26.53
2019-05-18T01:22:54.432Z,26.87
2019-05-18T01:25:22.927Z,27.50
2019-05-18T01:27:51.365Z,28.00
2019-05-18T01:30:19.817Z,28.37
2019-05-18T01:32:48.268Z,27.13
2019-05-18T01:35:17.156Z,28.20
2019-05-18T01:37:45.541Z,27.17
2019-05-18T01:40:14.532Z,27.77
2019-05-18T01:42:42.954Z,27.30
2019-05-18T01:45:16.732Z,29.90
2019-05-18T01:47:42.228Z,28.47
2019-05-18T01:50:11.600Z,28.07
2019-05-18T01:52:40.060Z,28.60
2019-05-18T01:55:08.701Z,28.80
2019-05-18T01:57:37.210Z,28.70
2019-05-18T02:00:06.488Z,28.73
2019-05-18T02:02:35.062Z,27.90
2019-05-18T02:05:04.621Z,27.70
2019-05-18T02:07:33.218Z,29.50
2019-05-18T02:10:02.227Z,31.10
2019-05-18T02:12:30.896Z,29.20
2019-05-18T02:14:59.358Z,30.40
2019-05-18T02:17:27.818Z,27.57
2019-05-18T02:19:56.313Z,30.17
2019-05-18T02:22:24.813Z,29.90
2019-05-18T02:24:53.302Z,28.20
2019-05-18T02:27:21.685Z,29.60
2019-05-18T02:29:50.124Z,30.10
2019-05-18T02:32:18.544Z,29.30
2019-05-18T02:34:46.901Z,32.00
2019-05-18T02:37:15.374Z,29.70
2019-05-18T02:39:43.769Z,31.80
2019-05-18T02:42:12.534Z,30.27
2019-05-18T02:44:41.327Z,31.33
2019-05-18T02:47:09.793Z,30.13
2019-05-18T02:49:38.233Z,30.77
2019-05-18T02:52:06.726Z,30.87
2019-05-18T02:54:35.234Z,31.67
2019-05-18T02:57:03.781Z,31.70
2019-05-18T02:59:32.235Z,29.87
2019-05-18T03:02:00.622Z,30.60
2019-05-18T03:04:29.078Z,31.97
2019-05-18T03:06:57.878Z,31.40
2019-05-18T03:09:26.307Z,31.53
2019-05-18T03:11:54.874Z,31.33
2019-05-18T03:14:23.310Z,32.40
2019-05-18T03:16:51.779Z,33.60
2019-05-18T03:19:20.318Z,33.50
2019-05-18T03:21:48.862Z,32.10
2019-05-18T03:24:17.655Z,32.80
2019-05-18T03:26:46.191Z,33.10
2019-05-18T03:29:14.914Z,32.33
2019-05-18T03:31:43.683Z,33.90
2019-05-18T03:34:12.503Z,33.07
2019-05-18T03:36:41.049Z,33.30
2019-05-18T03:39:09.533Z,34.10
2019-05-18T03:41:37.962Z,32.30
2019-05-18T03:44:06.484Z,33.30
2019-05-18T03:46:35.014Z,33.27
2019-05-18T03:49:03.458Z,35.20
2019-05-18T03:51:32.021Z,33.97
2019-05-18T03:54:00.545Z,38.60
2019-05-18T03:56:29.457Z,35.53
2019-05-18T03:58:58.003Z,35.57
2019-05-18T04:01:26.726Z,35.47
2019-05-18T04:03:55.213Z,33.83
2019-05-18T04:06:23.777Z,35.33
2019-05-18T04:08:52.210Z,33.10
2019-05-18T04:11:20.682Z,36.00
2019-05-18T04:13:49.144Z,34.37
2019-05-18T04:16:17.517Z,34.00
2019-05-18T04:18:45.898Z,33.27
2019-05-18T04:21:14.375Z,36.87
2019-05-18T04:23:43.070Z,35.87
2019-05-18T04:26:11.494Z,34.70
2019-05-18T04:28:40.263Z,36.07
2019-05-18T04:31:09.029Z,35.20
2019-05-18T04:33:37.437Z,35.27
2019-05-18T04:36:05.904Z,34.37
2019-05-18T04:38:34.289Z,34.50
2019-05-18T04:41:03.163Z,35.20
2019-05-18T04:43:31.547Z,34.83
2019-05-18T04:46:00.023Z,35.50
2019-05-18T04:48:28.414Z,34.67
2019-05-18T04:50:56.835Z,37.00
2019-05-18T04:53:25.614Z,34.77
2019-05-18T04:55:54.376Z,35.60
2019-05-18T04:58:22.768Z,34.07
2019-05-18T05:00:51.369Z,36.00
2019-05-18T05:03:20.024Z,35.57
2019-05-18T05:05:48.398Z,35.17
2019-05-18T05:08:17.695Z,34.60
2019-05-18T05:10:46.074Z,36.33
2019-05-18T05:13:14.551Z,35.97
2019-05-18T05:15:43.249Z,33.90
2019-05-18T05:18:11.801Z,36.00
2019-05-18T05:20:40.517Z,35.90
2019-05-18T05:23:09.013Z,35.67
2019-05-18T05:25:37.446Z,35.33
2019-05-18T05:28:06.169Z,35.63
2019-05-18T05:30:34.632Z,35.63
2019-05-18T05:33:03.124Z,34.90
2019-05-18T05:35:31.579Z,33.47
2019-05-18T05:38:00.068Z,35.03
2019-05-18T05:40:28.538Z,34.73
2019-05-18T05:42:57.010Z,34.97
2019-05-18T05:45:25.543Z,33.03
2019-05-18T05:47:54.079Z,35.57
2019-05-18T05:50:34.576Z,32.70
2019-05-18T05:52:52.818Z,33.03
2019-05-18T05:55:21.497Z,34.97
2019-05-18T05:57:49.990Z,32.07
2019-05-18T06:00:18.690Z,33.00
2019-05-18T06:02:47.095Z,31.47
2019-05-18T06:05:16.066Z,30.87
2019-05-18T06:07:44.670Z,31.80
2019-05-18T06:10:13.183Z,30.77
2019-05-18T06:12:41.656Z,30.63
2019-05-18T06:15:11.028Z,28.53
2019-05-18T06:17:39.752Z,28.50
2019-05-18T06:20:09.466Z,28.60
2019-05-18T06:22:38.060Z,26.50
2019-05-18T06:25:09.561Z,24.97
2019-05-18T06:27:38.027Z,25.40
2019-05-18T06:30:07.483Z,23.37
2019-05-18T06:32:36.250Z,24.57
2019-05-18T06:35:05.441Z,22.07
2019-05-18T06:37:33.909Z,20.80
2019-05-18T06:40:02.413Z,21.77
2019-05-18T06:42:30.988Z,21.03
2019-05-18T06:44:59.417Z,21.00
2019-05-18T06:47:28.545Z,17.90
2019-05-18T06:49:57.008Z,17.00
2019-05-18T06:52:25.589Z,16.63
2019-05-18T06:54:54.060Z,17.47
2019-05-18T06:57:23.946Z,16.53
2019-05-18T06:59:52.361Z,16.10
2019-05-18T07:02:20.843Z,17.00
2019-05-18T07:04:49.280Z,17.10
2019-05-18T07:07:17.816Z,17.90
2019-05-18T07:09:46.295Z,17.23
2019-05-18T07:12:14.807Z,18.17
2019-05-18T07:14:43.204Z,17.90
2019-05-18T07:17:11.817Z,17.53
2019-05-18T07:19:40.345Z,17.60
2019-05-18T07:22:08.884Z,21.00
2019-05-18T07:24:37.645Z,19.70
2019-05-18T07:27:06.101Z,17.30
2019-05-18T07:29:34.813Z,16.80
2019-05-18T07:32:03.259Z,16.27
2019-05-18T07:34:31.872Z,16.40
2019-05-18T07:37:01.406Z,17.07
2019-05-18T07:39:29.876Z,24.70
2019-05-18T07:41:58.394Z,16.17
2019-05-18T07:44:26.790Z,17.93
2019-05-18T07:46:55.319Z,16.77
2019-05-18T07:49:23.881Z,16.60
2019-05-18T07:51:52.319Z,16.50
2019-05-18T07:54:20.909Z,16.17
2019-05-18T07:56:49.429Z,17.20
2019-05-18T07:59:19.860Z,17.17
2019-05-18T08:01:48.094Z,15.60
2019-05-18T08:04:16.649Z,14.50
2019-05-18T08:06:45.161Z,17.93
2019-05-18T08:09:13.602Z,16.83
2019-05-18T08:11:42.036Z,17.77
2019-05-18T08:14:10.525Z,15.10
2019-05-18T08:16:39.054Z,14.77
2019-05-18T08:19:07.604Z,34.47
2019-05-18T08:21:36.427Z,15.10
2019-05-18T08:24:04.915Z,14.07
2019-05-18T08:26:33.798Z,14.33
2019-05-18T08:29:02.201Z,14.83
2019-05-18T08:31:30.711Z,13.80
2019-05-18T08:33:59.088Z,13.40
2019-05-18T08:36:27.667Z,14.50
2019-05-18T08:38:56.105Z,16.13
2019-05-18T08:41:24.591Z,16.47
2019-05-18T08:43:53.157Z,14.43
2019-05-18T08:46:21.619Z,16.50
2019-05-18T08:48:50.074Z,15.10
2019-05-18T08:51:18.475Z,13.70
2019-05-18T08:53:46.962Z,14.47
2019-05-18T08:56:15.448Z,14.90
2019-05-18T08:58:43.793Z,13.60
2019-05-18T09:01:12.264Z,13.63
2019-05-18T09:03:40.698Z,13.23
2019-05-18T09:06:09.195Z,13.13
2019-05-18T09:08:37.647Z,13.63
2019-05-18T09:11:06.124Z,13.40
2019-05-18T09:13:34.608Z,13.57
2019-05-18T09:16:03.224Z,13.93
2019-05-18T09:18:31.711Z,13.77
2019-05-18T09:21:00.183Z,13.90
2019-05-18T09:23:28.735Z,14.17
2019-05-18T09:25:57.476Z,13.50
2019-05-18T09:28:25.954Z,13.30
2019-05-18T09:30:54.413Z,13.30
2019-05-18T09:33:22.903Z,13.90
2019-05-18T09:35:51.280Z,13.67
2019-05-18T09:38:19.961Z,12.43
2019-05-18T09:40:48.479Z,13.00
2019-05-18T09:43:16.963Z,13.63
2019-05-18T09:45:45.497Z,14.67
2019-05-18T09:48:14.098Z,13.63
2019-05-18T09:50:42.623Z,14.37
2019-05-18T09:53:11.191Z,13.27
2019-05-18T09:55:39.683Z,13.00
2019-05-18T09:58:08.299Z,16.20
2019-05-18T10:00:39.089Z,14.50
2019-05-18T10:03:07.153Z,21.67
2019-05-18T10:05:35.539Z,14.03
2019-05-18T10:08:04.007Z,13.50
2019-05-18T10:10:33.775Z,13.47
2019-05-18T10:13:02.508Z,13.60
2019-05-18T10:15:30.954Z,13.03
2019-05-18T10:17:59.493Z,13.33
2019-05-18T10:20:27.989Z,12.40
2019-05-18T10:23:11.776Z,12.70
2019-05-18T10:25:26.818Z,19.27
2019-05-18T10:27:55.312Z,14.00
2019-05-18T10:30:23.925Z,13.60
2019-05-18T10:32:52.645Z,12.50
2019-05-18T10:35:21.094Z,11.07
2019-05-18T10:37:49.917Z,11.57
2019-05-18T10:40:19.856Z,11.00
2019-05-18T10:42:48.325Z,10.83
2019-05-18T10:45:17.081Z,11.10
2019-05-18T10:47:45.995Z,11.93
2019-05-18T10:50:14.684Z,11.40
2019-05-18T10:52:43.141Z,12.10
2019-05-18T10:55:12.161Z,11.67
2019-05-18T10:57:40.690Z,11.40
2019-05-18T11:00:10.917Z,11.73
2019-05-18T11:02:39.760Z,12.33
2019-05-18T11:05:08.338Z,11.90
2019-05-18T11:07:36.842Z,11.93
2019-05-18T11:10:07.139Z,12.07
2019-05-18T11:12:35.650Z,13.10
2019-05-18T11:15:06.379Z,12.80
2019-05-18T11:17:34.912Z,12.00
2019-05-18T11:20:04.585Z,12.80
2019-05-18T11:22:33.082Z,12.90
2019-05-18T11:25:01.446Z,12.97
2019-05-18T11:27:29.898Z,12.40
2019-05-18T11:29:58.367Z,12.60
2019-05-18T11:32:26.895Z,11.97
2019-05-18T11:34:55.440Z,12.70
2019-05-18T11:37:23.846Z,18.00
2019-05-18T11:39:52.292Z,15.20
2019-05-18T11:42:20.835Z,13.40
2019-05-18T11:44:49.293Z,12.20
2019-05-18T11:47:17.799Z,11.87
2019-05-18T11:49:46.372Z,11.40
2019-05-18T11:52:14.791Z,10.97
2019-05-18T11:54:43.276Z,11.73
2019-05-18T11:57:11.811Z,11.80
2019-05-18T11:59:40.415Z,10.90
2019-05-18T12:02:08.894Z,11.13
2019-05-18T12:04:37.308Z,11.23
2019-05-18T12:07:05.856Z,11.23
2019-05-18T12:09:34.468Z,11.53
2019-05-18T12:12:02.902Z,10.87
2019-05-18T12:14:31.446Z,10.60
2019-05-18T12:17:00.062Z,10.33
2019-05-18T12:19:28.891Z,10.47
2019-05-18T12:21:57.381Z,10.30
2019-05-18T12:24:26.230Z,10.20
2019-05-18T12:26:54.810Z,9.97
2019-05-18T12:29:23.713Z,9.80
2019-05-18T12:31:52.496Z,9.88
2019-05-18T12:34:20.998Z,9.50
2019-05-18T12:36:49.993Z,9.73
2019-05-18T12:39:18.443Z,9.20
2019-05-18T12:41:47.008Z,9.25
2019-05-18T12:44:15.482Z,9.50
2019-05-18T12:46:44.031Z,9.30
2019-05-18T12:49:12.494Z,9.50
2019-05-18T12:51:40.952Z,9.27
2019-05-18T12:54:09.863Z,9.30
2019-05-18T12:56:38.426Z,9.58
2019-05-18T12:59:06.862Z,9.25
2019-05-18T13:01:35.274Z,9.28
2019-05-18T13:04:04.739Z,9.10
2019-05-18T13:06:33.138Z,9.35
2019-05-18T13:09:01.576Z,8.93
2019-05-18T13:11:30.033Z,8.73
2019-05-18T13:13:58.581Z,8.95
2019-05-18T13:16:27.001Z,8.58
2019-05-18T13:18:55.355Z,8.98
2019-05-18T13:21:23.760Z,8.93
2019-05-18T13:23:52.570Z,9.00
2019-05-18T13:26:21.459Z,8.93
2019-05-18T13:28:49.978Z,8.25
2019-05-18T13:31:18.503Z,8.88
2019-05-18T13:33:47.424Z,8.80
2019-05-18T13:36:15.846Z,8.70
2019-05-18T13:38:44.588Z,8.75
2019-05-18T13:41:13.126Z,8.43
2019-05-18T13:43:41.647Z,8.30
2019-05-18T13:46:10.109Z,8.60
2019-05-18T13:48:38.555Z,8.45
2019-05-18T13:51:07.448Z,8.63
2019-05-18T13:53:36.199Z,8.65
2019-05-18T13:56:04.995Z,8.90
2019-05-18T13:58:33.490Z,8.60
2019-05-18T14:01:02.019Z,8.53
2019-05-18T14:03:30.871Z,8.40
2019-05-18T14:05:59.323Z,8.65
2019-05-18T14:08:28.121Z,8.70
2019-05-18T14:10:56.841Z,8.70
2019-05-18T14:13:25.166Z,8.70
2019-05-18T14:15:53.562Z,8.83
2019-05-18T14:18:21.990Z,8.73
2019-05-18T14:20:50.501Z,8.70
2019-05-18T14:23:18.958Z,8.73
2019-05-18T14:25:47.422Z,8.40
2019-05-18T14:28:16.185Z,9.20
2019-05-18T14:30:44.573Z,9.65
2019-05-18T14:33:13.054Z,9.60
2019-05-18T14:35:41.948Z,9.45
2019-05-18T14:38:10.437Z,9.30
2019-05-18T14:40:38.889Z,8.90
2019-05-18T14:43:07.358Z,9.13
2019-05-18T14:45:35.989Z,9.40
2019-05-18T14:48:04.706Z,9.10
2019-05-18T14:50:54.230Z,9.53
2019-05-18T14:53:22.747Z,9.83
2019-05-18T14:55:51.203Z,9.90
2019-05-18T14:58:20.110Z,10.27
2019-05-18T15:00:48.483Z,9.27
2019-05-18T15:03:17.114Z,9.93
2019-05-18T15:05:45.551Z,9.77
2019-05-18T15:08:14.030Z,9.57
2019-05-18T15:10:42.600Z,10.03
2019-05-18T15:13:11.077Z,9.87
2019-05-18T15:15:39.644Z,9.80
2019-05-18T15:18:08.462Z,10.10
2019-05-18T15:20:37.023Z,10.10
2019-05-18T15:23:05.835Z,9.40
2019-05-18T15:25:49.656Z,9.20
2019-05-18T15:28:04.924Z,9.60
2019-05-18T15:30:33.720Z,10.07
2019-05-18T15:33:02.239Z,10.10
2019-05-18T15:35:30.682Z,9.50
2019-05-18T15:37:59.144Z,9.70
2019-05-18T15:40:27.599Z,9.63
2019-05-18T15:42:56.074Z,9.57
2019-05-18T15:45:24.896Z,9.10
2019-05-18T15:47:53.538Z,9.93
2019-05-18T15:50:22.043Z,9.37
2019-05-18T15:52:50.496Z,9.90
2019-05-18T15:55:19.229Z,9.23
2019-05-18T15:57:48.069Z,9.53
2019-05-18T16:00:18.004Z,10.37
2019-05-18T16:02:46.883Z,9.47
2019-05-18T16:05:17.146Z,9.40
2019-05-18T16:07:45.873Z,9.47
2019-05-18T16:10:14.822Z,10.07
2019-05-18T16:12:43.320Z,9.40
2019-05-18T16:15:12.081Z,9.90
2019-05-18T16:17:40.643Z,10.10
2019-05-18T16:20:09.557Z,9.53
2019-05-18T16:22:38.077Z,9.50
2019-05-18T16:25:07.866Z,9.83
2019-05-18T16:27:36.651Z,10.10
2019-05-18T16:30:09.365Z,9.40
2019-05-18T16:32:37.826Z,11.47
2019-05-18T16:35:08.248Z,9.63
2019-05-18T16:37:37.107Z,9.70
2019-05-18T16:40:06.661Z,10.10
2019-05-18T16:42:35.407Z,10.80
2019-05-18T16:45:05.846Z,10.20
2019-05-18T16:47:34.628Z,9.50
2019-05-18T16:50:03.167Z,9.90
2019-05-18T16:52:31.613Z,9.60
2019-05-18T16:54:59.986Z,9.50
2019-05-18T16:57:28.443Z,9.20
2019-05-18T16:59:57.053Z,9.40
2019-05-18T17:02:31.820Z,9.87
2019-05-18T17:04:56.476Z,10.33
2019-05-18T17:07:24.914Z,10.17
2019-05-18T17:09:53.414Z,9.87
2019-05-18T17:12:22.308Z,9.80
2019-05-18T17:14:50.769Z,9.97
2019-05-18T17:17:19.326Z,10.10
2019-05-18T17:19:48.271Z,9.90
2019-05-18T17:22:16.703Z,9.17
2019-05-18T17:24:45.099Z,11.37
2019-05-18T17:27:13.550Z,10.37
2019-05-18T17:29:42.068Z,10.70
2019-05-18T17:32:10.626Z,11.87
2019-05-18T17:34:39.214Z,10.30
2019-05-18T17:37:07.739Z,10.33
2019-05-18T17:39:36.199Z,10.10
2019-05-18T17:42:05.353Z,9.50
2019-05-18T17:44:34.126Z,9.93
2019-05-18T17:47:03.009Z,9.87
2019-05-18T17:49:31.655Z,9.73
2019-05-18T17:52:00.246Z,10.50
2019-05-18T17:54:28.647Z,9.50
2019-05-18T17:57:07.947Z,10.07
2019-05-18T17:59:27.413Z,10.47
2019-05-18T18:01:55.831Z,10.10
2019-05-18T18:04:24.309Z,11.20
2019-05-18T18:06:52.789Z,10.43
2019-05-18T18:09:21.701Z,10.03
2019-05-18T18:11:50.220Z,10.10
2019-05-18T18:14:18.746Z,10.07
2019-05-18T18:16:47.272Z,10.27
2019-05-18T18:19:15.714Z,10.70
2019-05-18T18:21:44.116Z,10.87
2019-05-18T18:24:12.899Z,10.67
2019-05-18T18:26:41.435Z,10.80
2019-05-18T18:29:09.867Z,10.70
2019-05-18T18:31:38.342Z,11.10
2019-05-18T18:34:08.674Z,11.30
2019-05-18T18:36:37.215Z,11.20
2019-05-18T18:39:07.788Z,10.67
2019-05-18T18:41:36.374Z,10.83
2019-05-18T18:44:05.008Z,10.93
2019-05-18T18:46:33.546Z,11.40
2019-05-18T18:49:01.994Z,11.67
2019-05-18T18:51:30.482Z,12.10
2019-05-18T18:53:58.868Z,12.80
2019-05-18T18:56:27.404Z,12.30
2019-05-18T18:58:56.266Z,12.70
2019-05-18T19:01:24.755Z,12.80
2019-05-18T19:03:53.123Z,12.67
2019-05-18T19:06:21.577Z,12.40
2019-05-18T19:08:50.192Z,12.57
2019-05-18T19:11:18.722Z,12.83
2019-05-18T19:13:47.280Z,13.07
2019-05-18T19:16:15.741Z,15.13
2019-05-18T19:18:44.153Z,15.30
2019-05-18T19:21:12.686Z,14.93
2019-05-18T19:23:41.596Z,15.50
2019-05-18T19:26:10.140Z,14.90
2019-05-18T19:28:38.688Z,14.10
2019-05-18T19:31:07.558Z,14.20
2019-05-18T19:33:36.055Z,15.43
2019-05-18T19:36:04.665Z,14.60
2019-05-18T19:38:33.098Z,16.50
2019-05-18T19:41:05.037Z,15.80
2019-05-18T19:43:33.759Z,18.77
2019-05-18T19:46:02.239Z,15.93
2019-05-18T19:48:30.704Z,15.03
2019-05-18T19:50:59.509Z,14.57
2019-05-18T19:53:28.311Z,13.70
2019-05-18T19:55:56.698Z,14.10
2019-05-18T19:58:25.085Z,13.93
2019-05-18T20:00:53.654Z,14.30
2019-05-18T20:03:22.079Z,14.90
2019-05-18T20:05:50.536Z,14.90
2019-05-18T20:08:19.300Z,14.50
2019-05-18T20:10:47.881Z,14.53
2019-05-18T20:13:16.349Z,14.73
2019-05-18T20:15:44.743Z,14.83
2019-05-18T20:18:13.203Z,15.30
2019-05-18T20:20:41.581Z,15.97
2019-05-18T20:23:10.088Z,15.77
2019-05-18T20:25:38.878Z,14.90
2019-05-18T20:28:07.688Z,16.20
2019-05-18T20:30:36.197Z,14.60
2019-05-18T20:33:04.660Z,15.60
2019-05-18T20:35:33.537Z,14.50
2019-05-18T20:38:02.759Z,14.27
2019-05-18T20:40:31.198Z,14.30
2019-05-18T20:42:59.754Z,13.30
2019-05-18T20:45:28.258Z,15.00
2019-05-18T20:47:57.067Z,14.83
2019-05-18T20:50:25.856Z,15.10
2019-05-18T20:52:54.326Z,15.07
2019-05-18T20:55:22.721Z,16.40
2019-05-18T20:57:51.198Z,16.57
2019-05-18T21:00:20.132Z,17.80
2019-05-18T21:02:48.497Z,18.37
2019-05-18T21:05:17.009Z,17.50
2019-05-18T21:07:45.424Z,17.80
2019-05-18T21:10:14.339Z,18.03
2019-05-18T21:12:42.802Z,17.63
2019-05-18T21:15:12.587Z,17.40
2019-05-18T21:17:41.131Z,17.60
2019-05-18T21:20:10.921Z,18.03
2019-05-18T21:22:39.406Z,17.70
2019-05-18T21:25:08.011Z,27.80
2019-05-18T21:27:36.406Z,19.83
2019-05-18T21:30:06.221Z,17.23
2019-05-18T21:32:34.734Z,17.00
2019-05-18T21:35:05.064Z,18.77
2019-05-18T21:37:33.513Z,18.57
2019-05-18T21:40:01.948Z,17.73
2019-05-18T21:42:30.382Z,17.47
2019-05-18T21:44:59.185Z,16.27
2019-05-18T21:47:27.717Z,17.40
2019-05-18T21:49:56.269Z,16.30
2019-05-18T21:52:28.673Z,16.53
2019-05-18T21:54:57.264Z,17.63
2019-05-18T21:57:25.737Z,17.60
2019-05-18T21:59:54.200Z,19.00
2019-05-18T22:02:22.876Z,18.20
2019-05-18T22:04:51.496Z,17.30
2019-05-18T22:07:19.984Z,17.77
2019-05-18T22:09:48.419Z,17.30
2019-05-18T22:12:16.933Z,18.87
2019-05-18T22:14:45.439Z,18.13
2019-05-18T22:17:13.879Z,17.73
2019-05-18T22:19:42.497Z,19.67
2019-05-18T22:22:10.949Z,19.50
2019-05-18T22:24:39.474Z,19.30
2019-05-18T22:27:08.340Z,18.47
2019-05-18T22:29:36.878Z,19.70
2019-05-18T22:32:05.714Z,19.30
2019-05-18T22:34:34.116Z,20.67
2019-05-18T22:37:02.555Z,18.97
2019-05-18T22:39:31.020Z,20.77
2019-05-18T22:41:59.587Z,20.40
2019-05-18T22:44:28.176Z,20.83
2019-05-18T22:46:57.022Z,20.40
2019-05-18T22:49:25.500Z,20.20
2019-05-18T22:51:54.184Z,21.13
2019-05-18T22:54:22.991Z,19.60
2019-05-18T22:56:51.655Z,20.37
2019-05-18T22:59:20.137Z,20.57
2019-05-18T23:01:48.618Z,21.97
2019-05-18T23:04:17.054Z,22.87
2019-05-18T23:06:45.615Z,22.10
2019-05-18T23:09:14.143Z,23.73
2019-05-18T23:11:42.758Z,24.03
2019-05-18T23:14:11.329Z,24.10
2019-05-18T23:16:39.845Z,23.10
2019-05-18T23:19:08.632Z,23.33
2019-05-18T23:21:37.027Z,24.10
2019-05-18T23:24:05.590Z,22.63
2019-05-18T23:26:34.112Z,23.20
2019-05-18T23:29:02.509Z,22.30
2019-05-18T23:31:30.959Z,21.50
2019-05-18T23:33:59.369Z,22.17
2019-05-18T23:36:27.946Z,22.27
2019-05-18T23:38:56.803Z,21.93
2019-05-18T23:41:25.324Z,22.40
2019-05-18T23:43:54.157Z,21.90
2019-05-18T23:46:22.616Z,21.40
2019-05-18T23:48:51.024Z,22.90
2019-05-18T23:51:19.395Z,22.70
2019-05-18T23:53:47.914Z,21.83
2019-05-18T23:56:16.435Z,22.17
2019-05-18T23:58:45.153Z,21.90
